createdAt,value
2019-01-23T00:00:45.903Z,-4.20
2019-01-23T00:03:13.451Z,-4.10
2019-01-23T00:05:41.012Z,-4.00
2019-01-23T00:08:08.556Z,-3.90
2019-01-23T00:10:36.409Z,-3.90
2019-01-23T00:13:03.995Z,-3.80
2019-01-23T00:15:31.532Z,-3.80
2019-01-23T00:17:59.102Z,-3.70
2019-01-23T00:20:26.659Z,-3.60
2019-01-23T00:22:54.224Z,-3.60
2019-01-23T00:25:21.770Z,-3.60
2019-01-23T00:27:49.315Z,-3.50
2019-01-23T00:30:17.885Z,-3.50
2019-01-23T00:32:45.455Z,-3.50
2019-01-23T00:35:13.035Z,-3.50
2019-01-23T00:37:40.583Z,-3.50
2019-01-23T00:40:08.898Z,-3.40
2019-01-23T00:42:37.231Z,-3.40
2019-01-23T00:45:04.781Z,-3.40
2019-01-23T00:47:32.347Z,-3.40
2019-01-23T00:49:59.915Z,-3.40
2019-01-23T00:52:27.470Z,-3.40
2019-01-23T00:54:55.055Z,-3.30
2019-01-23T00:57:22.630Z,-3.40
2019-01-23T00:59:50.175Z,-3.40
2019-01-23T01:02:17.744Z,-3.40
2019-01-23T01:04:45.295Z,-3.30
2019-01-23T01:07:13.609Z,-3.20
2019-01-23T01:09:41.191Z,-3.20
2019-01-23T01:12:08.807Z,-3.20
2019-01-23T01:14:36.350Z,-3.10
2019-01-23T01:17:04.683Z,-3.10
2019-01-23T01:19:32.229Z,-3.10
2019-01-23T01:21:59.769Z,-3.10
2019-01-23T01:24:27.343Z,-3.10
2019-01-23T01:26:54.888Z,-3.10
2019-01-23T01:29:22.468Z,-3.00
2019-01-23T01:31:50.019Z,-3.00
2019-01-23T01:34:18.581Z,-3.00
2019-01-23T01:36:46.148Z,-3.00
2019-01-23T01:39:13.723Z,-2.90
2019-01-23T01:41:41.264Z,-2.90
2019-01-23T01:44:08.847Z,-2.80
2019-01-23T01:46:36.419Z,-2.80
2019-01-23T01:49:03.961Z,-2.80
2019-01-23T01:51:31.528Z,-2.70
2019-01-23T01:53:59.844Z,-2.70
2019-01-23T01:56:27.412Z,-2.70
2019-01-23T01:58:54.996Z,-2.60
2019-01-23T02:01:22.563Z,-2.50
2019-01-23T02:03:50.144Z,-2.50
2019-01-23T02:06:17.680Z,-2.30
2019-01-23T02:08:45.256Z,-2.50
2019-01-23T02:11:13.568Z,-2.50
2019-01-23T02:13:41.139Z,-2.50
2019-01-23T02:16:08.781Z,-2.60
2019-01-23T02:18:36.355Z,-2.50
2019-01-23T02:21:03.898Z,-2.50
2019-01-23T04:07:29.737Z,-1.80
2019-01-23T04:09:57.289Z,-1.80
2019-01-23T04:12:24.868Z,-1.80
2019-01-23T04:14:52.412Z,-1.80
2019-01-23T04:17:19.964Z,-1.80
2019-01-23T04:19:47.544Z,-1.60
2019-01-23T04:22:15.099Z,-1.60
2019-01-23T04:24:42.640Z,-1.70
2019-01-23T04:27:10.212Z,-1.70
2019-01-23T04:29:39.733Z,-1.80
2019-01-23T04:32:06.148Z,-1.70
2019-01-23T04:34:33.708Z,-1.80
2019-01-23T04:37:01.277Z,-1.60
2019-01-23T04:39:28.824Z,-1.60
2019-01-23T04:41:56.382Z,-1.60
2019-01-23T04:44:23.952Z,-1.70
2019-01-23T04:46:51.492Z,-1.70
2019-01-23T04:49:20.083Z,-1.70
2019-01-23T04:51:48.291Z,-1.70
2019-01-23T04:54:16.609Z,-1.70
2019-01-23T04:56:44.187Z,-1.70
2019-01-23T04:59:11.740Z,-1.80
2019-01-23T05:01:39.309Z,-1.70
2019-01-23T05:04:06.888Z,-1.70
2019-01-23T05:06:34.440Z,-1.90
2019-01-23T05:09:02.014Z,-2.00
2019-01-23T05:11:29.580Z,-2.00
2019-01-23T05:13:57.133Z,-2.10
2019-01-23T05:16:24.724Z,-2.10
2019-01-23T05:18:52.276Z,-2.20
2019-01-23T05:21:19.912Z,-2.00
2019-01-23T05:23:47.459Z,-1.90
2019-01-23T05:26:15.008Z,-1.80
2019-01-23T05:28:42.589Z,-1.80
2019-01-23T05:31:10.140Z,-1.80
2019-01-23T05:33:37.713Z,-1.80
2019-01-23T05:36:05.265Z,-1.70
2019-01-23T05:38:32.837Z,-1.70
2019-01-23T05:41:00.380Z,-1.70
2019-01-23T05:43:27.945Z,-1.70
2019-01-23T05:45:55.524Z,-1.70
2019-01-23T05:48:23.069Z,-1.60
2019-01-23T05:50:51.612Z,-1.70
2019-01-23T05:53:19.311Z,-1.60
2019-01-23T05:55:46.900Z,-1.60
2019-01-23T05:58:14.452Z,-1.70
2019-01-23T06:00:41.991Z,-1.70
2019-01-23T06:03:10.534Z,-1.70
2019-01-23T06:05:38.084Z,-1.70
2019-01-23T06:08:06.427Z,-1.60
2019-01-23T06:10:33.980Z,-1.60
2019-01-23T06:13:01.556Z,-1.60
2019-01-23T06:15:29.120Z,-1.50
2019-01-23T06:17:57.459Z,-1.50
2019-01-23T06:22:58.848Z,-1.40
2019-01-23T06:25:26.429Z,-1.40
2019-01-23T06:27:53.994Z,-1.40
2019-01-23T06:30:22.468Z,-1.40
2019-01-23T06:32:51.836Z,-1.40
2019-01-23T06:35:19.416Z,-1.50
2019-01-23T06:37:47.000Z,-1.40
2019-01-23T06:40:15.389Z,-1.50
2019-01-23T06:42:42.940Z,-1.70
2019-01-23T06:45:10.610Z,-1.60
2019-01-23T06:47:38.167Z,-1.50
2019-01-23T06:50:05.723Z,-1.40
2019-01-23T06:52:33.300Z,-1.50
2019-01-23T06:55:00.841Z,-1.50
2019-01-23T06:57:28.414Z,-1.50
2019-01-23T06:59:55.971Z,-1.30
2019-01-23T07:02:23.548Z,-1.30
2019-01-23T07:04:51.097Z,-1.30
2019-01-23T07:07:18.639Z,-1.30
2019-01-23T07:09:46.296Z,-1.30
2019-01-23T07:12:13.879Z,-1.20
2019-01-23T07:14:41.455Z,-1.30
2019-01-23T07:17:09.000Z,-1.30
2019-01-23T07:19:36.580Z,-1.20
2019-01-23T07:22:04.128Z,-1.20
2019-01-23T07:24:31.711Z,-1.20
2019-01-23T07:26:59.267Z,-1.20
2019-01-23T07:29:26.844Z,-1.10
2019-01-23T07:31:54.404Z,-1.10
2019-01-23T07:34:21.958Z,-1.10
2019-01-23T07:36:49.540Z,-1.10
2019-01-23T07:39:17.111Z,-1.10
2019-01-23T07:41:44.660Z,-1.10
2019-01-23T07:44:12.218Z,-1.00
2019-01-23T07:46:39.804Z,-1.00
2019-01-23T07:49:07.403Z,-0.90
2019-01-23T07:51:34.972Z,-0.90
2019-01-23T07:54:02.515Z,-0.90
2019-01-23T07:56:30.088Z,-0.90
2019-01-23T07:58:57.671Z,-0.80
2019-01-23T08:01:25.216Z,-0.80
2019-01-23T08:03:52.766Z,-0.80
2019-01-23T08:06:20.345Z,-0.60
2019-01-23T08:08:48.651Z,-0.60
2019-01-23T08:11:17.975Z,-0.60
2019-01-23T08:13:45.534Z,-0.60
2019-01-23T08:16:13.116Z,-0.60
2019-01-23T08:18:40.669Z,-0.70
2019-01-23T08:21:08.245Z,-0.70
2019-01-23T08:23:36.792Z,-0.80
2019-01-23T08:26:04.369Z,-0.60
2019-01-23T08:28:31.960Z,-0.50
2019-01-23T08:30:59.507Z,-0.50
2019-01-23T08:33:27.081Z,-0.50
2019-01-23T08:35:54.633Z,-0.50
2019-01-23T08:38:22.208Z,-0.40
2019-01-23T08:40:49.777Z,-0.40
2019-01-23T08:43:17.358Z,-0.40
2019-01-23T08:45:44.914Z,-0.40
2019-01-23T08:48:12.464Z,-0.30
2019-01-23T08:50:40.039Z,-0.30
2019-01-23T08:53:07.586Z,-0.30
2019-01-23T08:55:35.161Z,-0.20
2019-01-23T08:58:02.736Z,-0.20
2019-01-23T09:00:30.293Z,-0.20
2019-01-23T09:02:57.844Z,-0.10
2019-01-23T09:05:25.415Z,0.00
2019-01-23T09:07:52.961Z,-0.10
2019-01-23T09:10:21.224Z,-0.20
2019-01-23T09:12:48.795Z,-0.10
2019-01-23T09:15:16.354Z,-0.20
2019-01-23T09:17:44.920Z,-0.10
2019-01-23T09:20:13.656Z,-0.30
2019-01-23T09:22:42.207Z,-0.30
2019-01-23T09:25:09.756Z,-0.10
2019-01-23T09:27:37.319Z,0.10
2019-01-23T09:33:18.757Z,0.30
2019-01-23T09:36:16.842Z,0.30
2019-01-23T09:38:57.072Z,0.40
2019-01-23T09:41:28.108Z,0.40
2019-01-23T09:44:17.541Z,0.50
2019-01-23T09:46:58.541Z,0.60
2019-01-23T09:49:26.112Z,0.70
2019-01-23T09:51:59.544Z,0.80
2019-01-23T09:54:27.144Z,0.60
2019-01-23T09:56:54.688Z,0.40
2019-01-23T09:59:22.228Z,0.30
2019-01-23T10:01:49.795Z,0.40
2019-01-23T10:04:17.347Z,0.50
2019-01-23T10:06:44.924Z,0.60
2019-01-23T10:09:12.467Z,0.70
2019-01-23T10:11:40.009Z,0.70
2019-01-23T10:14:07.584Z,0.60
2019-01-23T10:16:35.124Z,0.70
2019-01-23T10:19:02.696Z,0.80
2019-01-23T10:21:30.240Z,0.80
2019-01-23T10:23:57.784Z,0.80
2019-01-23T10:26:25.457Z,0.60
2019-01-23T10:28:53.000Z,0.60
2019-01-23T10:31:20.563Z,0.50
2019-01-23T10:33:48.105Z,0.50
2019-01-23T10:36:15.673Z,0.70
2019-01-23T10:38:43.248Z,0.70
2019-01-23T10:41:10.789Z,0.70
2019-01-23T10:43:38.332Z,0.60
2019-01-23T10:46:06.118Z,0.60
2019-01-23T10:48:37.965Z,0.60
2019-01-23T10:51:01.292Z,0.70
2019-01-23T10:53:29.637Z,0.70
2019-01-23T10:55:57.185Z,0.60
2019-01-23T10:58:24.759Z,0.80
2019-01-23T11:00:52.300Z,0.90
2019-01-23T11:03:19.848Z,0.80
2019-01-23T11:05:47.900Z,0.90
2019-01-23T11:08:15.455Z,0.90
2019-01-23T11:10:43.021Z,0.90
2019-01-23T11:13:10.576Z,1.00
2019-01-23T11:15:38.164Z,1.10
2019-01-23T11:18:05.736Z,1.40
2019-01-23T11:20:33.285Z,1.40
2019-01-23T11:23:00.873Z,1.50
2019-01-23T11:25:28.459Z,1.70
2019-01-23T11:27:56.034Z,1.60
2019-01-23T11:30:23.587Z,1.40
2019-01-23T11:32:51.160Z,1.60
2019-01-23T11:35:18.711Z,1.50
2019-01-23T11:37:46.281Z,1.60
2019-01-23T11:40:23.097Z,1.70
2019-01-23T11:42:50.648Z,1.80
2019-01-23T11:45:18.192Z,1.90
2019-01-23T11:47:45.762Z,1.70
2019-01-23T11:50:13.300Z,1.80
2019-01-23T11:52:40.863Z,2.00
2019-01-23T11:55:08.408Z,2.20
2019-01-23T11:57:36.992Z,2.40
2019-01-23T12:00:07.302Z,2.00
2019-01-23T12:02:34.848Z,1.70
2019-01-23T12:05:03.409Z,1.60
2019-01-23T12:07:30.952Z,1.70
2019-01-23T12:09:59.511Z,1.80
2019-01-23T12:12:27.824Z,1.90
2019-01-23T12:14:55.392Z,1.90
2019-01-23T12:17:22.936Z,1.90
2019-01-23T12:19:50.504Z,1.80
2019-01-23T12:22:18.083Z,1.90
2019-01-23T12:24:45.651Z,1.90
2019-01-23T12:27:13.197Z,2.00
2019-01-23T12:29:40.740Z,1.90
2019-01-23T12:32:08.308Z,1.90
2019-01-23T12:34:35.868Z,1.70
2019-01-23T12:37:03.435Z,1.70
2019-01-23T12:39:31.012Z,1.70
2019-01-23T12:41:58.560Z,1.50
2019-01-23T12:44:26.131Z,1.50
2019-01-23T12:46:53.708Z,1.40
2019-01-23T12:49:21.248Z,1.30
2019-01-23T12:51:49.583Z,1.20
2019-01-23T12:54:17.161Z,1.20
2019-01-23T12:56:44.702Z,1.10
2019-01-23T12:59:12.271Z,1.20
2019-01-23T13:01:42.086Z,1.30
2019-01-23T13:04:07.438Z,1.20
2019-01-23T13:06:34.980Z,1.20
2019-01-23T13:09:03.316Z,1.20
2019-01-23T13:11:30.863Z,1.20
2019-01-23T13:13:59.386Z,1.30
2019-01-23T13:16:26.931Z,1.30
2019-01-23T13:18:55.280Z,0.90
2019-01-23T13:21:22.848Z,0.90
2019-01-23T13:23:50.393Z,1.10
2019-01-23T13:26:17.961Z,1.30
2019-01-23T13:28:45.751Z,1.40
2019-01-23T13:31:15.084Z,1.40
2019-01-23T13:33:42.632Z,1.40
2019-01-23T13:36:10.217Z,1.40
2019-01-23T13:38:37.796Z,1.80
2019-01-23T13:41:05.336Z,1.70
2019-01-23T13:43:32.901Z,1.60
2019-01-23T13:46:00.448Z,1.50
2019-01-23T13:48:28.019Z,1.50
2019-01-23T13:50:55.584Z,1.50
2019-01-23T13:53:23.130Z,1.50
2019-01-23T13:55:50.700Z,1.50
2019-01-23T13:58:19.012Z,1.80
2019-01-23T14:00:46.588Z,1.80
2019-01-23T14:03:14.135Z,1.90
2019-01-23T14:05:41.720Z,1.70
2019-01-23T14:08:09.272Z,1.70
2019-01-23T14:10:36.870Z,1.90
2019-01-23T14:13:04.441Z,1.80
2019-01-23T14:15:37.385Z,1.70
2019-01-23T14:18:04.953Z,1.90
2019-01-23T14:20:32.500Z,2.00
2019-01-23T14:23:01.073Z,1.90
2019-01-23T14:25:28.630Z,1.70
2019-01-23T14:27:56.182Z,1.50
2019-01-23T14:30:24.573Z,1.60
2019-01-23T14:32:52.132Z,1.70
2019-01-23T14:35:19.717Z,1.90
2019-01-23T14:37:47.283Z,1.90
2019-01-23T14:40:15.115Z,2.30
2019-01-23T14:42:42.692Z,2.10
2019-01-23T14:45:10.244Z,1.90
2019-01-23T14:47:37.822Z,1.90
2019-01-23T14:50:06.944Z,1.60
2019-01-23T14:52:34.521Z,1.70
2019-01-23T14:55:02.077Z,1.80
2019-01-23T14:57:29.768Z,2.00
2019-01-23T14:59:57.344Z,2.10
2019-01-23T15:02:24.901Z,2.00
2019-01-23T15:04:52.485Z,2.20
2019-01-23T15:07:20.044Z,1.70
2019-01-23T15:09:47.614Z,1.70
2019-01-23T15:12:19.322Z,1.90
2019-01-23T15:14:48.257Z,1.70
2019-01-23T15:17:18.018Z,1.80
2019-01-23T15:19:46.678Z,1.70
2019-01-23T15:22:15.996Z,1.70
2019-01-23T15:24:44.131Z,1.60
2019-01-23T15:27:13.039Z,1.70
2019-01-23T15:29:40.590Z,1.70
2019-01-23T15:32:08.172Z,1.50
2019-01-23T15:34:35.728Z,1.40
2019-01-23T15:37:03.309Z,1.20
2019-01-23T15:39:31.878Z,1.20
2019-01-23T15:42:01.037Z,1.30
2019-01-23T15:44:29.889Z,1.30
2019-01-23T15:47:00.029Z,1.10
2019-01-23T15:49:29.841Z,0.90
2019-01-23T15:51:58.850Z,0.90
2019-01-23T15:54:28.473Z,0.80
2019-01-23T15:56:58.496Z,0.80
2019-01-23T15:59:27.818Z,1.00
2019-01-23T16:01:57.480Z,0.80
2019-01-23T16:04:26.563Z,0.80
2019-01-23T16:06:57.038Z,0.90
2019-01-23T16:09:26.417Z,0.80
2019-01-23T16:11:56.046Z,0.90
2019-01-23T16:14:25.828Z,0.70
2019-01-23T16:16:55.008Z,0.70
2019-01-23T16:19:24.407Z,0.90
2019-01-23T16:21:53.481Z,0.70
2019-01-23T16:24:22.993Z,0.60
2019-01-23T16:26:52.264Z,0.60
2019-01-23T16:29:21.193Z,0.70
2019-01-23T16:31:51.809Z,0.90
2019-01-23T16:34:21.998Z,0.80
2019-01-23T16:36:51.482Z,1.20
2019-01-23T16:39:20.560Z,1.30
2019-01-23T16:41:48.943Z,1.10
2019-01-23T16:44:19.484Z,0.70
2019-01-23T16:46:49.999Z,0.70
2019-01-23T16:49:19.805Z,0.60
2019-01-23T16:51:51.405Z,0.70
2019-01-23T16:54:17.643Z,0.70
2019-01-23T16:56:46.666Z,1.00
2019-01-23T16:59:17.046Z,0.80
2019-01-23T17:01:46.398Z,0.90
2019-01-23T17:04:15.850Z,0.80
2019-01-23T17:06:44.970Z,0.50
2019-01-23T17:09:15.330Z,0.30
2019-01-23T17:11:45.559Z,0.40
2019-01-23T17:14:14.196Z,0.10
2019-01-23T17:16:41.738Z,0.00
2019-01-23T17:19:09.312Z,0.20
2019-01-23T17:21:36.860Z,0.50
2019-01-23T17:24:04.444Z,0.30
2019-01-23T17:26:31.996Z,0.20
2019-01-23T17:29:00.084Z,0.10
2019-01-23T17:31:29.468Z,0.10
2019-01-23T17:33:57.189Z,0.10
2019-01-23T17:36:24.769Z,0.10
2019-01-23T17:38:52.312Z,0.00
2019-01-23T17:41:19.870Z,-0.20
2019-01-23T17:43:47.453Z,-0.40
2019-01-23T17:46:15.028Z,-0.10
2019-01-23T17:48:43.372Z,-0.20
2019-01-23T17:51:10.919Z,-0.20
2019-01-23T17:53:38.467Z,-0.20
2019-01-23T17:56:06.048Z,-0.10
2019-01-23T17:58:33.596Z,0.00
2019-01-23T18:01:01.301Z,-0.10
2019-01-23T18:03:29.628Z,-0.20
2019-01-23T18:05:57.212Z,-0.20
2019-01-23T18:08:24.800Z,-0.20
2019-01-23T18:10:52.400Z,-0.20
2019-01-23T18:13:19.972Z,-0.30
2019-01-23T18:15:47.550Z,-0.20
2019-01-23T18:18:15.095Z,-0.20
2019-01-23T18:20:42.828Z,0.10
2019-01-23T18:23:10.404Z,0.30
2019-01-23T18:25:37.947Z,0.20
2019-01-23T18:28:05.520Z,0.20
2019-01-23T18:30:36.645Z,0.10
2019-01-23T18:33:04.228Z,0.10
2019-01-23T18:38:43.548Z,0.20
2019-01-23T18:41:18.384Z,0.40
2019-01-23T18:43:50.758Z,0.10
2019-01-23T18:49:44.900Z,0.00
2019-01-23T18:52:13.605Z,0.20
2019-01-23T18:54:41.416Z,0.10
2019-01-23T18:57:09.740Z,-0.10
2019-01-23T18:59:37.421Z,-0.30
2019-01-23T19:02:05.000Z,-0.30
2019-01-23T19:04:32.562Z,-0.40
2019-01-23T19:07:00.523Z,-0.40
2019-01-23T19:09:28.116Z,-0.30
2019-01-23T19:11:56.037Z,-0.30
2019-01-23T19:14:24.489Z,-0.40
2019-01-23T19:16:51.344Z,-0.30
2019-01-23T19:19:19.319Z,-0.30
2019-01-23T19:21:46.915Z,0.00
2019-01-23T19:24:14.489Z,0.20
2019-01-23T19:26:42.805Z,0.50
2019-01-23T19:29:10.377Z,0.50
2019-01-23T19:31:38.440Z,0.40
2019-01-23T19:34:06.038Z,0.10
2019-01-23T19:36:33.728Z,0.10
2019-01-23T19:39:01.296Z,0.20
2019-01-23T19:41:29.121Z,-0.10
2019-01-23T19:43:57.468Z,0.30
2019-01-23T19:46:25.028Z,0.20
2019-01-23T19:48:52.597Z,0.30
2019-01-23T19:51:20.165Z,0.20
2019-01-23T19:53:47.716Z,-0.10
2019-01-23T19:56:15.289Z,0.00
2019-01-23T19:58:42.842Z,0.20
2019-01-23T20:01:10.432Z,0.30
2019-01-23T20:03:37.988Z,0.10
2019-01-23T20:06:05.878Z,0.10
2019-01-23T20:08:33.452Z,-0.10
2019-01-23T20:11:01.031Z,-0.10
2019-01-23T20:13:28.620Z,-0.10
2019-01-23T20:15:56.168Z,0.00
2019-01-23T20:18:23.746Z,-0.20
2019-01-23T20:20:52.126Z,-0.10
2019-01-23T20:23:19.889Z,-0.10
2019-01-23T20:25:47.484Z,-0.20
2019-01-23T20:28:15.071Z,-0.30
2019-01-23T20:30:42.621Z,-0.40
2019-01-23T20:33:10.182Z,-0.30
2019-01-23T20:35:37.765Z,-0.50
2019-01-23T20:38:06.077Z,-0.40
2019-01-23T20:40:33.664Z,-0.40
2019-01-23T20:43:01.220Z,-0.40
2019-01-23T20:45:28.843Z,-0.20
2019-01-23T20:47:56.396Z,-0.40
2019-01-23T20:50:23.953Z,-0.10
2019-01-23T20:52:52.508Z,-0.20
2019-01-23T20:55:20.064Z,-0.50
2019-01-23T20:57:47.961Z,-0.50
2019-01-23T21:00:17.041Z,-0.50
2019-01-23T21:02:44.619Z,-0.80
2019-01-23T21:05:12.643Z,-0.90
2019-01-23T21:07:40.247Z,-0.80
2019-01-23T21:10:08.624Z,-0.90
2019-01-23T21:12:36.173Z,-0.70
2019-01-23T21:15:03.758Z,-0.90
2019-01-23T21:17:31.309Z,-0.80
2019-01-23T21:19:58.913Z,-0.70
2019-01-23T21:22:26.501Z,-0.70
2019-01-23T21:24:54.268Z,-0.60
2019-01-23T21:27:21.879Z,-0.30
2019-01-23T21:29:49.462Z,-0.20
2019-01-23T21:32:17.068Z,-0.20
2019-01-23T21:34:44.625Z,-0.20
2019-01-23T21:37:12.209Z,-0.20
2019-01-23T21:39:39.764Z,-0.10
2019-01-23T21:42:07.343Z,-0.40
2019-01-23T21:44:35.657Z,-0.30
2019-01-23T21:47:03.235Z,-0.40
2019-01-23T21:49:30.823Z,-0.20
2019-01-23T21:51:58.385Z,-0.30
2019-01-23T21:54:26.695Z,-0.20
2019-01-23T21:56:54.276Z,-0.30
2019-01-23T21:59:21.839Z,-0.80
2019-01-23T22:01:49.443Z,-0.90
2019-01-23T22:04:17.037Z,-1.00
2019-01-23T22:06:44.668Z,-1.00
2019-01-23T22:09:12.248Z,-1.00
2019-01-23T22:11:43.466Z,-0.80
2019-01-23T22:14:07.433Z,-0.70
2019-01-23T22:16:35.014Z,-0.60
2019-01-23T22:19:02.588Z,-0.40
2019-01-23T22:21:30.140Z,-0.50
2019-01-23T22:26:39.791Z,-0.70
2019-01-23T22:29:07.478Z,-0.60
2019-01-23T22:34:09.577Z,-0.50
2019-01-23T22:36:37.132Z,-0.90
2019-01-23T22:39:04.722Z,-0.60
2019-01-23T22:41:32.276Z,-0.60
2019-01-23T22:43:59.853Z,-0.60
2019-01-23T22:46:27.400Z,-0.60
2019-01-23T22:48:54.951Z,-0.80
2019-01-23T22:51:22.531Z,-1.10
2019-01-23T22:53:50.084Z,-1.10
2019-01-23T22:56:17.664Z,-1.20
2019-01-23T22:58:45.214Z,-1.20
2019-01-23T23:01:12.876Z,-1.20
2019-01-23T23:03:40.680Z,-1.50
2019-01-23T23:06:08.264Z,-1.40
2019-01-23T23:08:35.820Z,-1.50
2019-01-23T23:11:03.374Z,-1.50
2019-01-23T23:13:30.950Z,-1.30
2019-01-23T23:15:58.506Z,-1.20
2019-01-23T23:18:26.089Z,-1.20
2019-01-23T23:20:53.635Z,-1.40
2019-01-23T23:23:22.192Z,-1.50
2019-01-23T23:25:49.771Z,-1.20
2019-01-23T23:28:17.348Z,-0.90
2019-01-23T23:30:44.905Z,-0.90
2019-01-23T23:33:12.469Z,-1.00
2019-01-23T23:35:40.056Z,-1.00
2019-01-23T23:38:08.368Z,-1.00
2019-01-23T23:40:35.948Z,-1.10
2019-01-23T23:43:03.498Z,-1.10
2019-01-23T23:45:31.080Z,-0.90
2019-01-23T23:47:58.633Z,-0.60
2019-01-23T23:50:26.211Z,-0.60
2019-01-23T23:52:53.786Z,-0.70
2019-01-23T23:55:22.109Z,-1.10
2019-01-23T23:57:49.660Z,-1.10
